createdAt,value
2023-03-06T00:00:07.504Z,4.42
2023-03-06T00:02:33.904Z,4.57
2023-03-06T00:05:00.319Z,4.49
2023-03-06T00:07:26.697Z,5.00
2023-03-06T00:09:53.065Z,5.14
2023-03-06T00:12:19.414Z,5.22
2023-03-06T00:14:45.788Z,5.20
2023-03-06T00:17:12.168Z,5.12
2023-03-06T00:19:38.549Z,5.19
2023-03-06T00:22:04.946Z,5.06
2023-03-06T00:24:31.352Z,5.03
2023-03-06T00:26:57.721Z,4.67
2023-03-06T00:29:24.064Z,4.20
2023-03-06T00:31:50.535Z,3.85
2023-03-06T00:34:16.946Z,3.34
2023-03-06T00:36:43.316Z,3.35
2023-03-06T00:39:09.704Z,3.23
2023-03-06T00:41:36.100Z,3.11
2023-03-06T00:44:02.455Z,3.61
2023-03-06T00:46:28.815Z,3.72
2023-03-06T00:48:55.216Z,3.60
2023-03-06T00:51:21.606Z,3.92
2023-03-06T00:53:47.974Z,4.24
2023-03-06T00:56:14.594Z,4.55
2023-03-06T00:58:40.960Z,4.78
2023-03-06T01:01:07.400Z,4.52
2023-03-06T01:03:33.775Z,4.59
2023-03-06T01:06:00.183Z,4.65
2023-03-06T01:08:26.575Z,4.63
2023-03-06T01:10:52.998Z,4.78
2023-03-06T01:13:19.353Z,4.85
2023-03-06T01:15:45.732Z,4.73
2023-03-06T01:18:12.099Z,4.84
2023-03-06T01:20:38.485Z,4.59
2023-03-06T01:23:04.886Z,4.82
2023-03-06T01:25:31.255Z,4.48
2023-03-06T01:27:57.607Z,4.65
2023-03-06T01:30:23.993Z,4.87
2023-03-06T01:32:50.389Z,4.66
2023-03-06T01:35:16.754Z,4.50
2023-03-06T01:37:43.168Z,4.48
2023-03-06T01:40:09.569Z,4.88
2023-03-06T01:42:35.993Z,5.12
2023-03-06T01:45:02.375Z,4.52
2023-03-06T01:47:28.741Z,4.46
2023-03-06T01:49:55.143Z,4.51
2023-03-06T01:52:21.598Z,4.59
2023-03-06T01:54:48.001Z,4.84
2023-03-06T01:57:14.358Z,4.66
2023-03-06T01:59:40.742Z,4.79
2023-03-06T02:02:07.145Z,4.83
2023-03-06T02:04:33.503Z,4.96
2023-03-06T02:06:59.904Z,5.13
2023-03-06T02:09:26.276Z,5.00
2023-03-06T02:11:52.670Z,4.84
2023-03-06T02:14:19.050Z,5.03
2023-03-06T02:16:45.493Z,4.81
2023-03-06T02:19:11.898Z,4.69
2023-03-06T02:21:38.259Z,3.89
2023-03-06T02:24:04.646Z,3.89
2023-03-06T02:26:31.058Z,4.15
2023-03-06T02:28:57.542Z,3.92
2023-03-06T02:31:23.945Z,3.96
2023-03-06T02:33:50.303Z,3.38
2023-03-06T02:36:16.646Z,3.83
2023-03-06T02:38:43.044Z,3.84
2023-03-06T02:41:09.460Z,4.15
2023-03-06T02:43:35.866Z,4.48
2023-03-06T02:46:02.296Z,4.55
2023-03-06T02:48:28.771Z,4.64
2023-03-06T02:50:55.126Z,4.31
2023-03-06T02:53:21.487Z,3.75
2023-03-06T02:55:47.891Z,3.61
2023-03-06T02:58:14.252Z,3.41
2023-03-06T03:00:40.628Z,3.31
2023-03-06T03:03:07.014Z,3.92
2023-03-06T03:05:33.407Z,3.07
2023-03-06T03:07:59.772Z,3.55
2023-03-06T03:10:26.161Z,3.85
2023-03-06T03:12:52.513Z,4.07
2023-03-06T03:15:18.909Z,4.35
2023-03-06T03:17:45.296Z,4.56
2023-03-06T03:20:11.725Z,4.88
2023-03-06T03:22:38.083Z,4.86
2023-03-06T03:25:04.451Z,5.04
2023-03-06T03:27:30.812Z,5.05
2023-03-06T03:29:57.232Z,5.18
2023-03-06T03:32:23.650Z,4.51
2023-03-06T03:34:50.005Z,4.13
2023-03-06T03:37:16.391Z,3.76
2023-03-06T03:39:42.777Z,4.02
2023-03-06T03:42:09.178Z,3.88
2023-03-06T03:44:35.568Z,3.21
2023-03-06T03:47:01.935Z,3.63
2023-03-06T03:49:28.300Z,3.63
2023-03-06T03:51:54.699Z,3.19
2023-03-06T03:54:21.097Z,2.61
2023-03-06T03:56:47.496Z,3.01
2023-03-06T03:59:13.853Z,3.10
2023-03-06T04:01:40.219Z,3.46
2023-03-06T04:04:06.609Z,3.18
2023-03-06T04:06:33.010Z,3.23
2023-03-06T04:08:59.415Z,3.44
2023-03-06T04:11:25.775Z,3.20
2023-03-06T04:13:52.137Z,3.18
2023-03-06T04:16:18.552Z,3.26
2023-03-06T04:18:44.981Z,3.86
2023-03-06T04:21:11.374Z,4.04
2023-03-06T04:23:37.783Z,4.19
2023-03-06T04:26:04.186Z,4.19
2023-03-06T04:28:30.595Z,3.86
2023-03-06T04:30:56.998Z,4.00
2023-03-06T04:33:23.371Z,4.15
2023-03-06T04:35:49.776Z,3.68
2023-03-06T04:38:16.150Z,3.47
2023-03-06T04:40:44.572Z,3.34
2023-03-06T04:43:11.358Z,3.17
2023-03-06T04:45:37.795Z,3.82
2023-03-06T04:48:04.176Z,3.54
2023-03-06T04:50:30.532Z,3.80
2023-03-06T04:52:56.917Z,3.98
2023-03-06T04:55:23.318Z,3.78
2023-03-06T04:57:49.733Z,3.12
2023-03-06T05:00:16.123Z,3.50
2023-03-06T05:02:42.521Z,3.03
2023-03-06T05:05:08.881Z,3.48
2023-03-06T05:07:35.227Z,3.75
2023-03-06T05:10:01.568Z,2.95
2023-03-06T05:12:27.904Z,3.07
2023-03-06T05:14:54.250Z,3.26
2023-03-06T05:17:20.647Z,3.44
2023-03-06T05:19:47.012Z,2.76
2023-03-06T05:22:13.371Z,2.99
2023-03-06T05:24:39.759Z,2.68
2023-03-06T05:27:06.134Z,3.33
2023-03-06T05:29:32.500Z,3.60
2023-03-06T05:31:58.990Z,3.45
2023-03-06T05:34:25.406Z,3.72
2023-03-06T05:36:51.779Z,3.49
2023-03-06T05:39:18.168Z,3.57
2023-03-06T05:41:44.583Z,3.26
2023-03-06T05:44:10.994Z,3.12
2023-03-06T05:46:37.355Z,3.57
2023-03-06T05:49:03.765Z,3.81
2023-03-06T05:51:30.186Z,3.91
2023-03-06T05:53:56.599Z,4.19
2023-03-06T05:56:23.000Z,4.09
2023-03-06T05:58:49.361Z,3.92
2023-03-06T06:01:15.763Z,4.10
2023-03-06T06:03:42.211Z,4.30
2023-03-06T06:06:08.594Z,3.90
2023-03-06T06:08:34.962Z,3.68
2023-03-06T06:11:01.350Z,3.57
2023-03-06T06:13:27.736Z,3.77
2023-03-06T06:15:54.184Z,4.03
2023-03-06T06:18:20.591Z,4.21
2023-03-06T06:20:47.009Z,4.50
2023-03-06T06:23:13.406Z,4.67
2023-03-06T06:25:39.804Z,4.62
2023-03-06T06:28:06.159Z,4.71
2023-03-06T06:30:32.520Z,4.64
2023-03-06T06:32:58.925Z,4.87
2023-03-06T06:35:25.349Z,4.58
2023-03-06T06:37:51.763Z,4.67
2023-03-06T06:40:18.167Z,4.91
2023-03-06T06:42:44.642Z,5.05
2023-03-06T06:45:11.029Z,5.02
2023-03-06T06:47:37.464Z,4.67
2023-03-06T06:50:03.868Z,4.28
2023-03-06T06:52:30.230Z,3.88
2023-03-06T06:54:56.584Z,4.21
2023-03-06T06:57:22.934Z,4.15
2023-03-06T06:59:50.718Z,4.45
2023-03-06T07:02:18.766Z,4.58
2023-03-06T07:05:02.048Z,4.52
2023-03-06T07:07:29.785Z,4.67
2023-03-06T07:09:56.160Z,4.70
2023-03-06T07:12:22.551Z,4.46
2023-03-06T07:14:48.927Z,5.11
2023-03-06T07:17:15.313Z,5.54
2023-03-06T07:19:41.707Z,5.78
2023-03-06T07:22:08.123Z,6.03
2023-03-06T07:24:34.690Z,6.42
2023-03-06T07:27:01.103Z,6.65
2023-03-06T07:29:27.524Z,6.72
2023-03-06T07:31:53.874Z,6.77
2023-03-06T07:34:20.261Z,6.97
2023-03-06T07:36:46.687Z,6.96
2023-03-06T07:39:13.072Z,7.09
2023-03-06T07:41:39.461Z,7.07
2023-03-06T07:44:05.826Z,7.04
2023-03-06T07:46:32.302Z,6.57
2023-03-06T07:48:58.691Z,6.72
2023-03-06T07:51:25.056Z,6.67
2023-03-06T07:53:51.452Z,6.62
2023-03-06T07:56:17.867Z,6.47
2023-03-06T07:58:44.252Z,6.85
2023-03-06T08:01:10.600Z,7.08
2023-03-06T08:03:36.973Z,6.84
2023-03-06T08:06:03.387Z,6.75
2023-03-06T08:08:29.847Z,7.07
2023-03-06T08:10:56.203Z,6.96
2023-03-06T08:13:22.543Z,7.12
2023-03-06T08:15:48.901Z,7.24
2023-03-06T08:18:15.251Z,7.24
2023-03-06T08:20:41.641Z,7.49
2023-03-06T08:23:08.065Z,7.34
2023-03-06T08:25:34.435Z,7.63
2023-03-06T08:28:02.879Z,7.66
2023-03-06T08:30:29.269Z,7.71
2023-03-06T08:32:55.694Z,7.15
2023-03-06T08:35:22.164Z,7.12
2023-03-06T08:37:48.579Z,7.17
2023-03-06T08:40:14.944Z,7.18
2023-03-06T08:42:41.317Z,7.60
2023-03-06T08:45:07.685Z,7.92
2023-03-06T08:47:34.080Z,8.12
2023-03-06T08:50:00.883Z,7.80
2023-03-06T08:52:27.314Z,7.12
2023-03-06T08:54:53.728Z,7.07
2023-03-06T08:57:20.100Z,6.95
2023-03-06T08:59:46.495Z,7.32
2023-03-06T09:02:12.949Z,7.33
2023-03-06T09:04:39.347Z,7.67
2023-03-06T09:07:05.747Z,7.87
2023-03-06T09:09:32.154Z,7.60
2023-03-06T09:11:58.556Z,7.90
2023-03-06T09:14:24.958Z,7.58
2023-03-06T09:16:51.397Z,7.66
2023-03-06T09:19:17.800Z,7.84
2023-03-06T09:21:44.195Z,7.53
2023-03-06T09:24:10.611Z,7.35
2023-03-06T09:26:45.557Z,7.43
2023-03-06T09:29:12.840Z,8.01
2023-03-06T09:31:39.264Z,8.24
2023-03-06T09:34:05.646Z,8.38
2023-03-06T09:36:34.409Z,8.24
2023-03-06T09:39:06.532Z,8.09
2023-03-06T09:41:32.900Z,7.75
2023-03-06T09:43:59.287Z,8.08
2023-03-06T09:46:25.756Z,8.02
2023-03-06T09:48:52.194Z,8.14
2023-03-06T09:51:18.602Z,7.45
2023-03-06T09:53:44.960Z,7.91
2023-03-06T09:56:11.379Z,8.10
2023-03-06T09:58:37.788Z,8.04
2023-03-06T10:01:04.186Z,7.84
2023-03-06T10:03:31.690Z,8.05
2023-03-06T10:05:58.067Z,7.54
2023-03-06T10:08:24.419Z,8.19
2023-03-06T10:10:50.818Z,8.16
2023-03-06T10:13:17.214Z,8.30
2023-03-06T10:15:43.626Z,8.42
2023-03-06T10:18:10.050Z,8.22
2023-03-06T10:20:36.457Z,8.36
2023-03-06T10:23:05.174Z,8.43
2023-03-06T10:25:31.829Z,8.78
2023-03-06T10:27:58.204Z,8.64
2023-03-06T10:30:24.606Z,9.03
2023-03-06T10:32:51.017Z,9.02
2023-03-06T10:35:17.421Z,8.85
2023-03-06T10:37:43.842Z,9.27
2023-03-06T10:40:10.246Z,9.39
2023-03-06T10:42:36.747Z,9.01
2023-03-06T10:45:03.180Z,9.17
2023-03-06T10:47:29.634Z,8.84
2023-03-06T10:49:55.988Z,8.13
2023-03-06T10:52:22.382Z,8.27
2023-03-06T10:54:48.761Z,8.11
2023-03-06T10:57:15.153Z,8.44
2023-03-06T10:59:41.509Z,8.05
2023-03-06T11:02:07.859Z,8.16
2023-03-06T11:04:34.278Z,8.44
2023-03-06T11:07:00.688Z,8.16
2023-03-06T11:09:27.091Z,8.25
2023-03-06T11:11:53.497Z,8.66
2023-03-06T11:14:19.861Z,8.94
2023-03-06T11:16:46.254Z,8.97
2023-03-06T11:19:12.617Z,8.26
2023-03-06T11:21:38.963Z,9.12
2023-03-06T11:24:05.366Z,9.03
2023-03-06T11:26:31.781Z,9.54
2023-03-06T11:28:58.187Z,9.82
2023-03-06T11:31:24.577Z,10.00
2023-03-06T11:33:51.060Z,9.94
2023-03-06T11:36:17.466Z,9.74
2023-03-06T11:38:43.828Z,9.64
2023-03-06T11:41:10.219Z,10.03
2023-03-06T11:43:36.632Z,9.61
2023-03-06T11:46:03.046Z,9.60
2023-03-06T11:48:29.448Z,9.52
2023-03-06T11:50:55.849Z,9.34
2023-03-06T11:53:22.246Z,9.38
2023-03-06T11:55:48.662Z,9.65
2023-03-06T11:58:15.070Z,9.93
2023-03-06T12:00:41.431Z,9.79
2023-03-06T12:03:07.791Z,10.00
2023-03-06T12:05:34.219Z,10.13
2023-03-06T12:08:00.603Z,10.23
2023-03-06T12:10:26.993Z,10.28
2023-03-06T12:12:53.389Z,10.37
2023-03-06T12:15:19.755Z,10.64
2023-03-06T12:17:46.143Z,10.68
2023-03-06T12:20:12.501Z,10.90
2023-03-06T12:22:38.857Z,10.66
2023-03-06T12:25:05.301Z,10.47
2023-03-06T12:27:31.654Z,10.48
2023-03-06T12:29:58.044Z,11.02
2023-03-06T12:32:24.467Z,10.72
2023-03-06T12:34:50.840Z,10.61
2023-03-06T12:37:17.238Z,10.76
2023-03-06T12:39:43.588Z,10.65
2023-03-06T12:42:17.832Z,10.89
2023-03-06T12:44:48.927Z,10.67
2023-03-06T12:47:15.347Z,10.69
2023-03-06T12:49:41.712Z,10.64
2023-03-06T12:52:08.225Z,10.93
2023-03-06T12:54:34.612Z,11.09
2023-03-06T12:57:01.021Z,10.92
2023-03-06T12:59:27.427Z,10.95
2023-03-06T13:01:53.837Z,10.93
2023-03-06T13:04:20.282Z,10.87
2023-03-06T13:06:50.816Z,10.48
2023-03-06T13:09:17.706Z,10.87
2023-03-06T13:11:44.073Z,11.03
2023-03-06T13:14:10.480Z,10.87
2023-03-06T13:16:36.923Z,10.72
2023-03-06T13:19:03.336Z,11.05
2023-03-06T13:21:29.757Z,10.84
2023-03-06T13:23:56.121Z,10.96
2023-03-06T13:26:22.526Z,10.52
2023-03-06T13:28:48.893Z,10.96
2023-03-06T13:31:26.526Z,11.14
2023-03-06T13:33:53.514Z,11.29
2023-03-06T13:36:20.137Z,10.89
2023-03-06T13:38:46.542Z,10.85
2023-03-06T13:41:12.954Z,11.30
2023-03-06T13:43:39.352Z,11.15
2023-03-06T13:46:05.749Z,11.33
2023-03-06T13:48:47.346Z,11.56
2023-03-06T13:51:13.740Z,11.62
2023-03-06T13:53:40.190Z,11.73
2023-03-06T13:56:06.644Z,11.89
2023-03-06T13:58:33.023Z,12.00
2023-03-06T14:00:59.448Z,11.88
2023-03-06T14:03:25.807Z,12.09
2023-03-06T14:05:52.215Z,11.88
2023-03-06T14:08:18.596Z,12.05
2023-03-06T14:10:44.950Z,12.02
2023-03-06T14:13:11.307Z,12.32
2023-03-06T14:15:37.710Z,12.59
2023-03-06T14:18:04.117Z,12.70
2023-03-06T14:20:30.520Z,12.81
2023-03-06T14:22:56.887Z,12.78
2023-03-06T14:25:23.314Z,13.03
2023-03-06T14:27:49.730Z,12.56
2023-03-06T14:30:16.134Z,12.96
2023-03-06T14:32:42.628Z,12.55
2023-03-06T14:35:08.996Z,12.84
2023-03-06T14:37:35.397Z,13.02
2023-03-06T14:40:01.805Z,12.66
2023-03-06T14:42:28.194Z,12.58
2023-03-06T14:44:54.569Z,12.08
2023-03-06T14:47:20.969Z,12.35
2023-03-06T14:49:47.375Z,12.69
2023-03-06T14:52:13.794Z,12.50
2023-03-06T14:54:40.213Z,12.74
2023-03-06T14:57:06.654Z,12.51
2023-03-06T14:59:33.067Z,12.82
2023-03-06T15:01:59.571Z,13.01
2023-03-06T15:04:25.984Z,12.82
2023-03-06T15:06:52.416Z,12.64
2023-03-06T15:09:18.811Z,12.90
2023-03-06T15:11:45.184Z,12.92
2023-03-06T15:14:11.570Z,12.73
2023-03-06T15:16:38.067Z,12.85
2023-03-06T15:19:04.464Z,12.76
2023-03-06T15:21:30.859Z,12.59
2023-03-06T15:23:57.218Z,12.51
2023-03-06T15:26:23.635Z,12.36
2023-03-06T15:28:52.185Z,12.39
2023-03-06T15:31:20.692Z,12.33
2023-03-06T15:33:47.095Z,12.51
2023-03-06T15:36:13.484Z,12.78
2023-03-06T15:38:39.905Z,12.86
2023-03-06T15:41:06.277Z,12.65
2023-03-06T15:43:32.644Z,12.62
2023-03-06T15:45:59.178Z,12.55
2023-03-06T15:48:25.678Z,12.76
2023-03-06T15:50:52.057Z,12.62
2023-03-06T15:53:18.432Z,12.61
2023-03-06T15:55:44.828Z,12.51
2023-03-06T15:58:11.199Z,12.57
2023-03-06T16:00:37.557Z,12.54
2023-03-06T16:03:03.916Z,12.32
2023-03-06T16:05:30.266Z,12.13
2023-03-06T16:07:56.608Z,11.96
2023-03-06T16:10:22.957Z,11.98
2023-03-06T16:12:49.316Z,11.66
2023-03-06T16:15:15.701Z,11.55
2023-03-06T16:17:42.051Z,11.51
2023-03-06T16:20:08.444Z,11.51
2023-03-06T16:22:34.811Z,11.81
2023-03-06T16:25:01.163Z,11.48
2023-03-06T16:27:27.547Z,11.29
2023-03-06T16:29:54.026Z,11.29
2023-03-06T16:32:20.444Z,11.50
2023-03-06T16:34:46.859Z,11.68
2023-03-06T16:37:13.247Z,10.77
2023-03-06T16:39:39.633Z,10.85
2023-03-06T16:42:06.008Z,10.94
2023-03-06T16:44:32.394Z,10.55
2023-03-06T16:46:58.750Z,10.63
2023-03-06T16:49:25.232Z,10.28
2023-03-06T16:51:51.670Z,10.14
2023-03-06T16:54:18.046Z,9.93
2023-03-06T16:56:44.407Z,9.64
2023-03-06T16:59:10.792Z,9.50
2023-03-06T17:01:37.251Z,9.27
2023-03-06T17:04:03.712Z,9.37
2023-03-06T17:06:30.113Z,8.87
2023-03-06T17:08:56.476Z,9.01
2023-03-06T17:11:22.823Z,9.04
2023-03-06T17:13:49.241Z,8.69
2023-03-06T17:16:15.682Z,8.77
2023-03-06T17:18:42.046Z,8.19
2023-03-06T17:21:08.436Z,8.17
2023-03-06T17:23:34.836Z,8.02
2023-03-06T17:26:01.229Z,8.10
2023-03-06T17:28:27.585Z,7.95
2023-03-06T17:30:53.984Z,8.07
2023-03-06T17:33:20.398Z,7.91
2023-03-06T17:35:46.836Z,7.85
2023-03-06T17:38:13.231Z,8.03
2023-03-06T17:40:39.614Z,7.99
2023-03-06T17:43:05.961Z,7.96
2023-03-06T17:45:32.312Z,7.96
2023-03-06T17:47:58.705Z,7.96
2023-03-06T17:50:25.065Z,8.14
2023-03-06T17:52:51.449Z,8.22
2023-03-06T17:55:17.846Z,8.25
2023-03-06T17:57:44.192Z,8.25
2023-03-06T18:00:10.600Z,8.29
2023-03-06T18:02:37.023Z,8.52
2023-03-06T18:05:03.409Z,8.49
2023-03-06T18:07:29.868Z,9.01
2023-03-06T18:09:56.220Z,8.74
2023-03-06T18:12:22.584Z,8.68
2023-03-06T18:14:48.976Z,8.45
2023-03-06T18:17:15.330Z,8.41
2023-03-06T18:19:41.682Z,8.22
2023-03-06T18:22:08.039Z,8.28
2023-03-06T18:24:34.389Z,7.86
2023-03-06T18:27:00.775Z,8.40
2023-03-06T18:29:27.176Z,8.53
2023-03-06T18:31:53.553Z,8.63
2023-03-06T18:34:19.957Z,8.88
2023-03-06T18:36:46.353Z,8.93
2023-03-06T18:39:12.745Z,8.51
2023-03-06T18:41:39.123Z,8.39
2023-03-06T18:44:05.522Z,8.27
2023-03-06T18:46:31.928Z,8.06
2023-03-06T18:48:58.297Z,7.66
2023-03-06T18:51:24.644Z,8.04
2023-03-06T18:53:51.039Z,8.01
2023-03-06T18:56:17.394Z,8.13
2023-03-06T18:58:43.778Z,8.43
2023-03-06T19:01:10.195Z,8.38
2023-03-06T19:03:36.637Z,8.58
2023-03-06T19:06:03.064Z,8.05
2023-03-06T19:08:29.463Z,7.92
2023-03-06T19:10:55.858Z,7.85
2023-03-06T19:13:22.250Z,7.58
2023-03-06T19:15:48.623Z,7.81
2023-03-06T19:18:15.002Z,7.55
2023-03-06T19:20:41.385Z,7.46
2023-03-06T19:23:07.803Z,7.45
2023-03-06T19:25:34.158Z,7.01
2023-03-06T19:28:00.520Z,6.97
2023-03-06T19:30:26.916Z,6.90
2023-03-06T19:32:53.331Z,6.70
2023-03-06T19:35:19.818Z,6.33
2023-03-06T19:37:46.251Z,6.45
2023-03-06T19:40:12.683Z,6.45
2023-03-06T19:42:39.039Z,6.54
2023-03-06T19:45:05.437Z,6.36
2023-03-06T19:47:31.791Z,6.42
2023-03-06T19:49:58.183Z,6.42
2023-03-06T19:52:24.561Z,6.50
2023-03-06T19:54:50.901Z,6.75
2023-03-06T19:57:17.270Z,6.36
2023-03-06T19:59:43.654Z,6.35
2023-03-06T20:02:10.052Z,6.62
2023-03-06T20:04:36.458Z,6.98
2023-03-06T20:07:02.820Z,6.95
2023-03-06T20:09:29.168Z,6.67
2023-03-06T20:11:55.554Z,6.68
2023-03-06T20:14:21.960Z,6.61
2023-03-06T20:16:48.355Z,6.51
2023-03-06T20:19:14.707Z,6.39
2023-03-06T20:21:41.051Z,6.42
2023-03-06T20:24:07.413Z,6.43
2023-03-06T20:26:33.843Z,6.51
2023-03-06T20:29:00.258Z,6.66
2023-03-06T20:31:26.688Z,6.56
2023-03-06T20:33:53.137Z,6.44
2023-03-06T20:36:19.517Z,6.14
2023-03-06T20:38:45.864Z,6.52
2023-03-06T20:41:12.228Z,6.48
2023-03-06T20:43:38.583Z,6.52
2023-03-06T20:46:05.047Z,6.60
2023-03-06T20:48:31.423Z,6.68
2023-03-06T20:50:57.772Z,6.42
2023-03-06T20:53:24.121Z,6.79
2023-03-06T20:55:50.471Z,6.37
2023-03-06T20:58:16.864Z,6.43
2023-03-06T21:00:43.215Z,6.65
2023-03-06T21:03:09.561Z,6.74
2023-03-06T21:05:35.950Z,6.60
2023-03-06T21:08:02.323Z,6.35
2023-03-06T21:10:28.670Z,6.50
2023-03-06T21:12:55.049Z,6.42
2023-03-06T21:15:21.504Z,6.59
2023-03-06T21:17:47.861Z,6.75
2023-03-06T21:20:14.257Z,6.76
2023-03-06T21:22:40.660Z,6.59
2023-03-06T21:25:07.016Z,6.68
2023-03-06T21:27:33.419Z,6.76
2023-03-06T21:29:59.771Z,6.37
2023-03-06T21:32:26.184Z,6.18
2023-03-06T21:34:52.639Z,6.47
2023-03-06T21:37:19.000Z,6.64
2023-03-06T21:39:45.341Z,6.67
2023-03-06T21:42:11.733Z,6.20
2023-03-06T21:44:38.147Z,6.24
2023-03-06T21:47:04.558Z,6.19
2023-03-06T21:49:30.909Z,6.52
2023-03-06T21:51:57.309Z,6.25
2023-03-06T21:54:23.748Z,6.51
2023-03-06T21:56:50.125Z,6.47
2023-03-06T21:59:16.492Z,6.82
2023-03-06T22:01:42.858Z,6.42
2023-03-06T22:04:09.215Z,6.78
2023-03-06T22:06:35.705Z,6.91
2023-03-06T22:09:02.101Z,6.63
2023-03-06T22:11:28.492Z,6.74
2023-03-06T22:13:54.849Z,6.87
2023-03-06T22:16:21.284Z,6.47
2023-03-06T22:18:47.655Z,6.56
2023-03-06T22:21:14.013Z,6.56
2023-03-06T22:23:40.360Z,6.58
2023-03-06T22:26:06.778Z,6.61
2023-03-06T22:28:33.190Z,6.78
2023-03-06T22:30:59.556Z,6.84
2023-03-06T22:33:25.941Z,7.00
2023-03-06T22:35:52.413Z,7.06
2023-03-06T22:38:18.815Z,7.15
2023-03-06T22:40:45.221Z,7.13
2023-03-06T22:43:11.584Z,6.66
2023-03-06T22:45:38.042Z,6.69
2023-03-06T22:48:10.818Z,6.83
2023-03-06T22:50:37.711Z,6.73
2023-03-06T22:53:04.120Z,6.56
2023-03-06T22:55:30.491Z,6.71
2023-03-06T22:57:56.839Z,6.56
2023-03-06T23:00:23.230Z,6.07
2023-03-06T23:02:49.640Z,6.52
2023-03-06T23:05:16.038Z,6.49
2023-03-06T23:07:42.404Z,6.57
2023-03-06T23:10:08.761Z,6.74
2023-03-06T23:12:35.149Z,6.92
2023-03-06T23:15:01.585Z,6.91
2023-03-06T23:17:27.988Z,7.09
2023-03-06T23:19:54.341Z,6.75
2023-03-06T23:22:20.744Z,6.46
2023-03-06T23:24:47.315Z,6.59
2023-03-06T23:27:13.693Z,6.98
2023-03-06T23:29:40.060Z,7.16
2023-03-06T23:32:06.458Z,7.15
2023-03-06T23:34:32.867Z,6.92
2023-03-06T23:36:59.271Z,6.59
2023-03-06T23:39:25.653Z,6.88
2023-03-06T23:41:52.010Z,6.93
2023-03-06T23:44:18.427Z,6.94
2023-03-06T23:46:44.778Z,6.52
2023-03-06T23:49:11.132Z,7.02
2023-03-06T23:51:37.530Z,6.92
2023-03-06T23:54:03.904Z,6.85
2023-03-06T23:56:30.298Z,6.81
2023-03-06T23:58:56.644Z,7.04
